createdAt,value
2018-07-21T00:00:36.458Z,0
2018-07-21T00:01:46.536Z,0
2018-07-21T00:02:56.631Z,0
2018-07-21T00:04:06.423Z,0
2018-07-21T00:05:16.494Z,0
2018-07-21T00:06:26.336Z,0
2018-07-21T00:07:36.411Z,0
2018-07-21T00:08:46.496Z,0
2018-07-21T00:09:56.295Z,0
2018-07-21T00:11:06.371Z,0
2018-07-21T00:12:16.505Z,0
2018-07-21T00:13:26.579Z,0
2018-07-21T00:14:36.649Z,0
2018-07-21T00:15:46.717Z,0
2018-07-21T00:16:56.778Z,0
2018-07-21T00:18:06.619Z,0
2018-07-21T00:19:16.755Z,0
2018-07-21T00:20:26.839Z,0
2018-07-21T00:21:36.907Z,0
2018-07-21T00:22:46.717Z,0
2018-07-21T00:23:56.836Z,0
2018-07-21T00:25:06.107Z,0
2018-07-21T00:26:16.167Z,0
2018-07-21T00:27:26.238Z,0
2018-07-21T00:28:36.026Z,0
2018-07-21T00:29:45.897Z,0
2018-07-21T00:30:55.964Z,0
2018-07-21T00:32:05.763Z,0
2018-07-21T00:33:15.826Z,0
2018-07-21T00:34:25.898Z,0
2018-07-21T00:35:36.043Z,0
2018-07-21T00:36:46.107Z,0
2018-07-21T00:37:55.899Z,0
2018-07-21T00:39:05.969Z,0
2018-07-21T00:40:15.750Z,0
2018-07-21T00:41:25.880Z,0
2018-07-21T00:42:35.959Z,0
2018-07-21T00:43:45.775Z,0
2018-07-21T00:44:55.581Z,0
2018-07-21T00:46:05.380Z,0
2018-07-21T00:47:15.491Z,0
2018-07-21T00:48:25.556Z,0
2018-07-21T00:49:34.803Z,0
2018-07-21T00:50:44.873Z,0
2018-07-21T00:51:54.680Z,0
2018-07-21T00:53:04.539Z,0
2018-07-21T00:54:14.608Z,0
2018-07-21T00:55:24.692Z,0
2018-07-21T00:56:34.500Z,0
2018-07-21T00:57:44.296Z,0
2018-07-21T00:58:54.425Z,0
2018-07-21T01:00:04.518Z,0
2018-07-21T01:01:14.579Z,0
2018-07-21T01:02:24.654Z,0
2018-07-21T01:03:34.453Z,0
2018-07-21T01:04:44.559Z,0
2018-07-21T01:05:54.612Z,0
2018-07-21T01:07:04.392Z,0
2018-07-21T01:08:14.186Z,0
2018-07-21T01:09:24.251Z,0
2018-07-21T01:10:33.562Z,0
2018-07-21T01:11:43.354Z,0
2018-07-21T01:12:53.429Z,0
2018-07-21T01:14:03.503Z,4
2018-07-21T01:15:13.025Z,4
2018-07-21T01:16:22.881Z,4
2018-07-21T01:17:32.406Z,4
2018-07-21T01:18:41.934Z,4
2018-07-21T01:19:51.740Z,0
2018-07-21T01:21:01.797Z,0
2018-07-21T01:22:11.901Z,0
2018-07-21T01:23:21.417Z,4
2018-07-21T01:24:30.959Z,4
2018-07-21T01:25:41.021Z,4
2018-07-21T01:26:50.821Z,4
2018-07-21T01:28:00.950Z,0
2018-07-21T01:29:11.029Z,4
2018-07-21T01:30:21.102Z,4
2018-07-21T01:31:30.614Z,4
2018-07-21T01:32:40.143Z,8
2018-07-21T01:33:50.251Z,4
2018-07-21T01:35:00.041Z,4
2018-07-21T01:36:09.883Z,8
2018-07-21T01:37:19.676Z,8
2018-07-21T01:38:29.486Z,8
2018-07-21T01:39:39.600Z,8
2018-07-21T01:40:49.388Z,12
2018-07-21T01:41:59.474Z,8
2018-07-21T01:43:09.296Z,12
2018-07-21T01:44:19.095Z,12
2018-07-21T01:45:29.220Z,12
2018-07-21T01:46:39.280Z,16
2018-07-21T01:47:49.347Z,16
2018-07-21T01:48:59.415Z,16
2018-07-21T01:50:08.670Z,20
2018-07-21T01:51:18.792Z,20
2018-07-21T01:52:28.857Z,24
2018-07-21T01:53:38.661Z,24
2018-07-21T01:54:48.448Z,24
2018-07-21T01:55:58.524Z,28
2018-07-21T01:57:08.649Z,32
2018-07-21T01:58:18.452Z,32
2018-07-21T01:59:28.245Z,36
2018-07-21T02:00:38.033Z,40
2018-07-21T02:01:47.825Z,40
2018-07-21T02:02:57.923Z,48
2018-07-21T02:04:07.454Z,48
2018-07-21T02:05:16.968Z,52
2018-07-21T02:06:27.029Z,56
2018-07-21T02:07:36.822Z,64
2018-07-21T02:08:46.929Z,68
2018-07-21T02:09:56.977Z,72
2018-07-21T02:11:06.504Z,76
2018-07-21T02:12:16.564Z,84
2018-07-21T02:13:25.833Z,92
2018-07-21T02:14:35.659Z,96
2018-07-21T02:15:45.757Z,104
2018-07-21T02:16:55.549Z,112
2018-07-21T02:18:05.609Z,116
2018-07-21T02:19:15.670Z,124
2018-07-21T02:20:25.520Z,132
2018-07-21T02:21:35.589Z,144
2018-07-21T02:22:45.871Z,148
2018-07-21T02:23:55.620Z,160
2018-07-21T02:25:05.438Z,172
2018-07-21T02:26:15.019Z,180
2018-07-21T02:27:25.079Z,192
2018-07-21T02:28:35.143Z,200
2018-07-21T02:29:45.213Z,212
2018-07-21T02:30:55.036Z,224
2018-07-21T02:32:04.626Z,236
2018-07-21T02:33:13.900Z,248
2018-07-21T02:34:23.720Z,256
2018-07-21T02:35:33.257Z,272
2018-07-21T02:36:43.332Z,284
2018-07-21T02:37:52.905Z,296
2018-07-21T02:39:02.987Z,312
2018-07-21T02:40:12.786Z,324
2018-07-21T02:41:22.318Z,340
2018-07-21T02:42:32.127Z,356
2018-07-21T02:43:42.263Z,376
2018-07-21T02:44:52.342Z,392
2018-07-21T02:46:02.130Z,408
2018-07-21T02:47:12.197Z,424
2018-07-21T02:48:22.254Z,444
2018-07-21T02:49:32.144Z,468
2018-07-21T02:50:41.958Z,488
2018-07-21T02:51:51.760Z,512
2018-07-21T02:53:01.830Z,536
2018-07-21T02:54:11.905Z,556
2018-07-21T02:55:22.034Z,580
2018-07-21T02:56:32.123Z,608
2018-07-21T02:57:42.215Z,632
2018-07-21T02:58:52.280Z,656
2018-07-21T03:00:02.360Z,680
2018-07-21T03:03:45.465Z,764
2018-07-21T03:04:55.291Z,788
2018-07-21T03:06:05.083Z,820
2018-07-21T03:07:15.159Z,852
2018-07-21T03:08:24.963Z,884
2018-07-21T03:09:34.810Z,920
2018-07-21T03:10:44.929Z,952
2018-07-21T03:11:54.989Z,980
2018-07-21T03:13:04.809Z,1008
2018-07-21T03:14:14.876Z,1028
2018-07-21T03:15:24.993Z,1056
2018-07-21T03:16:34.788Z,1084
2018-07-21T03:17:44.592Z,1108
2018-07-21T03:18:54.673Z,1128
2018-07-21T03:20:04.196Z,1148
2018-07-21T03:21:13.520Z,1176
2018-07-21T03:22:23.323Z,1204
2018-07-21T03:23:33.130Z,1232
2018-07-21T03:24:42.930Z,1260
2018-07-21T03:25:53.009Z,1292
2018-07-21T03:27:02.871Z,1316
2018-07-21T03:28:12.668Z,1332
2018-07-21T03:29:22.486Z,1384
2018-07-21T03:30:32.272Z,1404
2018-07-21T03:31:42.084Z,1436
2018-07-21T03:32:51.950Z,1476
2018-07-21T03:34:02.048Z,1500
2018-07-21T03:35:11.847Z,1528
2018-07-21T03:36:21.942Z,1548
2018-07-21T03:37:31.734Z,1576
2018-07-21T03:38:41.858Z,1596
2018-07-21T03:39:51.921Z,1620
2018-07-21T03:41:01.736Z,1644
2018-07-21T03:42:11.824Z,1664
2018-07-21T03:43:21.352Z,1688
2018-07-21T03:44:31.475Z,1712
2018-07-21T03:45:41.549Z,1732
2018-07-21T03:46:51.361Z,1756
2018-07-21T03:48:01.144Z,1776
2018-07-21T03:49:10.669Z,1800
2018-07-21T03:50:20.770Z,1820
2018-07-21T03:51:30.854Z,1844
2018-07-21T03:52:40.912Z,1864
2018-07-21T03:53:51.014Z,1884
2018-07-21T03:55:01.174Z,1904
2018-07-21T03:56:11.201Z,1928
2018-07-21T03:57:20.471Z,1944
2018-07-21T03:58:30.518Z,1964
2018-07-21T03:59:40.323Z,1988
2018-07-21T04:00:49.838Z,2000
2018-07-21T04:01:59.973Z,2020
2018-07-21T04:03:09.522Z,2040
2018-07-21T04:04:19.323Z,2060
2018-07-21T04:05:29.393Z,2076
2018-07-21T04:06:39.470Z,2084
2018-07-21T04:07:49.322Z,2104
2018-07-21T04:08:58.923Z,2132
2018-07-21T04:10:08.625Z,2148
2018-07-21T04:11:18.435Z,2160
2018-07-21T04:12:28.230Z,2184
2018-07-21T04:13:38.335Z,2204
2018-07-21T04:14:48.393Z,2220
2018-07-21T04:15:58.510Z,2236
2018-07-21T04:17:08.314Z,2256
2018-07-21T04:18:18.105Z,2272
2018-07-21T04:19:27.670Z,2288
2018-07-21T04:20:37.215Z,2300
2018-07-21T04:21:47.273Z,2316
2018-07-21T04:22:57.077Z,2328
2018-07-21T04:24:06.686Z,2344
2018-07-21T04:25:16.543Z,2356
2018-07-21T04:26:26.349Z,2372
2018-07-21T04:27:36.404Z,2388
2018-07-21T04:28:46.199Z,2404
2018-07-21T04:29:56.267Z,2420
2018-07-21T04:31:06.372Z,2432
2018-07-21T04:32:16.449Z,2452
2018-07-21T04:33:26.242Z,2464
2018-07-21T04:34:36.032Z,2480
2018-07-21T04:35:46.101Z,2492
2018-07-21T04:36:55.956Z,2508
2018-07-21T04:38:05.767Z,2524
2018-07-21T04:39:15.283Z,2536
2018-07-21T04:40:25.356Z,2552
2018-07-21T04:41:35.160Z,2564
2018-07-21T04:42:45.260Z,2580
2018-07-21T04:43:54.813Z,2592
2018-07-21T04:45:04.633Z,2608
2018-07-21T04:46:14.724Z,2620
2018-07-21T04:47:24.796Z,2636
2018-07-21T04:48:34.919Z,2648
2018-07-21T04:49:44.992Z,2660
2018-07-21T04:50:55.068Z,2672
2018-07-21T04:52:05.131Z,2684
2018-07-21T04:53:14.912Z,2696
2018-07-21T04:54:24.756Z,2712
2018-07-21T04:55:34.846Z,2724
2018-07-21T04:56:44.908Z,2736
2018-07-21T04:57:54.980Z,2748
2018-07-21T04:59:04.765Z,2760
2018-07-21T05:00:14.661Z,2772
2018-07-21T05:01:24.474Z,2784
2018-07-21T05:02:33.991Z,2792
2018-07-21T05:03:44.084Z,2800
2018-07-21T05:04:53.901Z,2812
2018-07-21T05:06:03.752Z,2824
2018-07-21T05:07:13.285Z,2832
2018-07-21T05:08:22.807Z,2848
2018-07-21T05:09:32.862Z,2848
2018-07-21T05:10:42.665Z,2864
2018-07-21T05:11:52.502Z,2872
2018-07-21T05:13:02.576Z,2876
2018-07-21T05:14:11.837Z,2888
2018-07-21T05:15:21.917Z,2892
2018-07-21T05:16:31.722Z,2904
2018-07-21T05:17:41.570Z,2908
2018-07-21T05:18:51.626Z,2912
2018-07-21T05:20:00.969Z,2920
2018-07-21T05:21:10.220Z,2932
2018-07-21T05:22:20.013Z,2936
2018-07-21T05:23:30.146Z,2944
2018-07-21T05:24:39.926Z,2952
2018-07-21T05:25:49.989Z,2960
2018-07-21T05:27:00.045Z,2968
2018-07-21T05:28:09.849Z,2976
2018-07-21T05:29:19.975Z,2984
2018-07-21T05:30:29.492Z,2992
2018-07-21T05:31:39.007Z,3000
2018-07-21T05:32:48.548Z,3008
2018-07-21T05:33:58.624Z,3012
2018-07-21T05:35:08.767Z,3016
2018-07-21T05:36:18.856Z,3024
2018-07-21T05:37:28.941Z,3028
2018-07-21T05:38:39.031Z,3032
2018-07-21T05:39:48.849Z,3040
2018-07-21T05:40:58.982Z,3048
2018-07-21T05:42:08.767Z,3052
2018-07-21T05:43:18.829Z,3052
2018-07-21T05:44:28.636Z,3064
2018-07-21T05:45:38.710Z,3068
2018-07-21T05:46:48.851Z,3072
2018-07-21T05:47:58.649Z,3076
2018-07-21T05:49:08.457Z,3084
2018-07-21T05:50:18.239Z,3088
2018-07-21T05:51:28.314Z,3096
2018-07-21T05:52:38.164Z,3100
2018-07-21T05:53:48.228Z,3104
2018-07-21T05:54:58.296Z,3108
2018-07-21T05:56:08.358Z,3112
2018-07-21T05:57:18.141Z,3116
2018-07-21T05:58:28.001Z,3120
2018-07-21T05:59:37.527Z,3124
2018-07-21T06:00:47.319Z,3132
2018-07-21T06:01:57.389Z,3136
2018-07-21T06:03:07.458Z,3140
2018-07-21T06:04:17.744Z,3148
2018-07-21T06:05:27.581Z,3148
2018-07-21T06:06:37.659Z,3156
2018-07-21T06:07:47.736Z,3160
2018-07-21T06:08:57.869Z,3164
2018-07-21T06:10:08.027Z,3172
2018-07-21T06:11:18.155Z,3176
2018-07-21T06:12:27.950Z,3188
2018-07-21T06:13:37.760Z,3188
2018-07-21T06:14:47.563Z,3196
2018-07-21T06:15:57.417Z,3200
2018-07-21T06:17:07.062Z,3204
2018-07-21T06:18:17.356Z,3212
2018-07-21T06:19:27.156Z,3216
2018-07-21T06:20:37.211Z,3220
2018-07-21T06:21:47.329Z,3228
2018-07-21T06:22:57.130Z,3232
2018-07-21T06:24:06.665Z,3236
2018-07-21T06:25:17.094Z,3244
2018-07-21T06:26:27.384Z,3252
2018-07-21T06:27:37.244Z,3260
2018-07-21T06:28:47.324Z,3272
2018-07-21T06:29:57.115Z,3280
2018-07-21T06:31:06.647Z,3288
2018-07-21T06:32:16.707Z,3296
2018-07-21T06:33:26.835Z,3300
2018-07-21T06:34:36.643Z,3308
2018-07-21T06:35:46.828Z,3316
2018-07-21T06:37:15.566Z,3324
2018-07-21T06:38:25.315Z,3332
2018-07-21T06:39:35.680Z,3340
2018-07-21T06:40:45.834Z,3344
2018-07-21T06:41:55.910Z,3352
2018-07-21T06:43:05.806Z,3356
2018-07-21T06:44:15.453Z,3368
2018-07-21T06:45:25.266Z,3380
2018-07-21T06:46:35.341Z,3384
2018-07-21T06:47:45.442Z,3388
2018-07-21T06:48:55.271Z,3400
2018-07-21T06:50:05.393Z,3412
2018-07-21T06:51:15.171Z,3420
2018-07-21T06:52:25.255Z,3428
2018-07-21T06:53:35.330Z,3436
2018-07-21T06:54:45.151Z,3448
2018-07-21T06:55:55.001Z,3456
2018-07-21T06:57:05.085Z,3468
2018-07-21T06:58:14.605Z,3472
2018-07-21T06:59:24.422Z,3476
2018-07-21T07:00:34.233Z,3484
2018-07-21T07:01:44.091Z,3488
2018-07-21T07:02:54.176Z,3496
2018-07-21T07:04:03.996Z,3504
2018-07-21T07:05:14.074Z,3504
2018-07-21T07:06:24.143Z,3512
2018-07-21T07:07:34.278Z,3512
2018-07-21T07:08:44.357Z,3520
2018-07-21T07:09:54.426Z,3524
2018-07-21T07:11:04.498Z,3528
2018-07-21T07:12:14.035Z,3532
2018-07-21T07:13:24.184Z,3536
2018-07-21T07:14:34.250Z,3540
2018-07-21T07:15:44.328Z,3548
2018-07-21T07:16:54.143Z,3552
2018-07-21T07:18:03.935Z,3560
2018-07-21T07:19:14.053Z,3568
2018-07-21T07:20:23.861Z,3576
2018-07-21T07:21:33.946Z,3576
2018-07-21T07:22:44.022Z,3588
2018-07-21T07:23:53.839Z,3592
2018-07-21T07:25:03.948Z,3596
2018-07-21T07:26:14.023Z,3600
2018-07-21T07:27:24.191Z,3612
2018-07-21T07:28:34.283Z,3616
2018-07-21T07:29:43.552Z,3628
2018-07-21T07:30:53.682Z,3632
2018-07-21T07:32:03.759Z,3640
2018-07-21T07:33:13.021Z,3648
2018-07-21T07:34:22.833Z,3652
2018-07-21T07:35:32.900Z,3656
2018-07-21T07:36:42.486Z,3668
2018-07-21T07:37:52.300Z,3676
2018-07-21T07:39:02.103Z,3684
2018-07-21T07:40:11.928Z,3696
2018-07-21T07:41:22.008Z,3700
2018-07-21T07:42:31.848Z,3708
2018-07-21T07:43:41.941Z,3724
2018-07-21T07:44:51.474Z,3736
2018-07-21T07:46:01.015Z,3752
2018-07-21T07:47:10.806Z,3756
2018-07-21T07:48:20.926Z,3768
2018-07-21T07:49:30.715Z,3772
2018-07-21T07:50:40.786Z,3780
2018-07-21T07:51:50.591Z,3796
2018-07-21T07:53:00.404Z,3808
2018-07-21T07:54:10.518Z,3820
2018-07-21T07:55:20.303Z,3832
2018-07-21T07:56:29.836Z,3844
2018-07-21T07:57:39.930Z,3860
2018-07-21T07:58:49.736Z,3868
2018-07-21T07:59:59.324Z,3888
2018-07-21T08:01:08.631Z,3900
2018-07-21T08:02:18.240Z,3912
2018-07-21T08:03:28.056Z,3928
2018-07-21T08:04:37.865Z,3948
2018-07-21T08:05:47.987Z,3964
2018-07-21T08:06:58.061Z,3980
2018-07-21T08:08:07.869Z,3996
2018-07-21T08:09:17.686Z,4020
2018-07-21T08:10:27.493Z,4028
2018-07-21T08:11:37.085Z,4040
2018-07-21T08:12:46.880Z,4060
2018-07-21T08:13:56.940Z,4072
2018-07-21T08:15:06.732Z,4088
2018-07-21T08:16:16.008Z,4112
2018-07-21T08:17:26.141Z,4116
2018-07-21T08:18:36.214Z,4132
2018-07-21T08:19:46.024Z,4148
2018-07-21T08:20:56.093Z,4168
2018-07-21T08:22:06.158Z,4176
2018-07-21T08:23:16.267Z,4188
2018-07-21T08:24:26.360Z,4208
2018-07-21T08:25:36.426Z,4228
2018-07-21T08:26:46.498Z,4240
2018-07-21T08:27:56.562Z,4256
2018-07-21T08:29:06.798Z,4272
2018-07-21T08:30:16.980Z,4288
2018-07-21T08:31:26.788Z,4308
2018-07-21T08:32:36.044Z,4324
2018-07-21T08:33:46.115Z,4348
2018-07-21T08:34:55.965Z,4368
2018-07-21T08:36:05.498Z,4388
2018-07-21T08:37:15.294Z,4416
2018-07-21T08:38:25.105Z,4428
2018-07-21T08:39:34.893Z,4452
2018-07-21T08:40:45.013Z,4472
2018-07-21T08:41:54.808Z,4492
2018-07-21T08:43:04.882Z,4516
2018-07-21T08:44:14.409Z,4544
2018-07-21T08:45:24.475Z,4572
2018-07-21T08:46:34.591Z,4588
2018-07-21T08:47:44.645Z,4604
2018-07-21T08:48:54.450Z,4628
2018-07-21T08:50:04.639Z,4648
2018-07-21T08:51:14.435Z,4672
2018-07-21T08:52:24.576Z,4692
2018-07-21T08:53:34.650Z,4708
2018-07-21T08:54:44.720Z,4736
2018-07-21T08:55:55.327Z,4752
2018-07-21T08:57:04.905Z,4776
2018-07-21T08:58:15.029Z,4796
2018-07-21T08:59:24.822Z,4816
2018-07-21T09:00:34.897Z,4832
2018-07-21T09:01:44.707Z,4852
2018-07-21T09:02:54.768Z,4868
2018-07-21T09:04:04.366Z,4892
2018-07-21T09:05:14.169Z,4908
2018-07-21T09:06:23.951Z,4924
2018-07-21T09:07:34.011Z,4952
2018-07-21T09:08:43.560Z,4972
2018-07-21T09:09:53.670Z,5000
2018-07-21T09:11:03.777Z,5024
2018-07-21T09:12:13.585Z,5052
2018-07-21T09:13:23.392Z,5076
2018-07-21T09:14:32.930Z,5096
2018-07-21T09:15:42.809Z,5120
2018-07-21T09:16:52.905Z,5148
2018-07-21T09:18:02.964Z,5168
2018-07-21T09:19:12.759Z,5192
2018-07-21T09:20:22.838Z,5216
2018-07-21T09:21:32.942Z,5240
2018-07-21T09:22:42.871Z,5252
2018-07-21T09:23:52.676Z,5280
2018-07-21T09:25:02.484Z,5288
2018-07-21T09:26:12.030Z,5296
2018-07-21T09:27:21.634Z,5312
2018-07-21T09:28:31.433Z,5320
2018-07-21T09:29:41.524Z,5324
2018-07-21T09:30:51.343Z,5324
2018-07-21T09:32:01.142Z,5328
2018-07-21T09:33:10.991Z,5336
2018-07-21T09:34:20.911Z,5336
2018-07-21T09:35:31.050Z,5344
2018-07-21T09:36:41.135Z,5348
2018-07-21T09:37:50.948Z,5356
2018-07-21T09:39:01.068Z,5364
2018-07-21T09:40:11.284Z,5376
2018-07-21T09:41:21.470Z,5384
2018-07-21T09:42:31.533Z,5408
2018-07-21T09:43:41.390Z,5416
2018-07-21T09:44:51.227Z,5428
2018-07-21T09:46:01.051Z,5448
2018-07-21T09:47:10.864Z,5464
2018-07-21T09:48:20.948Z,5480
2018-07-21T09:49:31.025Z,5504
2018-07-21T09:50:40.878Z,5528
2018-07-21T09:51:50.690Z,5556
2018-07-21T09:53:00.486Z,5580
2018-07-21T09:54:10.302Z,5608
2018-07-21T09:55:19.848Z,5632
2018-07-21T09:56:29.428Z,5660
2018-07-21T09:57:38.973Z,5692
2018-07-21T09:58:48.513Z,5716
2018-07-21T09:59:57.769Z,5744
2018-07-21T10:01:07.830Z,5764
2018-07-21T10:02:17.688Z,5796
2018-07-21T10:03:27.216Z,5824
2018-07-21T10:04:37.020Z,5852
2018-07-21T10:05:46.817Z,5884
2018-07-21T10:06:56.896Z,5908
2018-07-21T10:08:06.746Z,5936
2018-07-21T10:09:16.554Z,5960
2018-07-21T10:10:26.632Z,5984
2018-07-21T10:11:36.701Z,6000
2018-07-21T10:12:46.784Z,6016
2018-07-21T10:13:56.365Z,6024
2018-07-21T10:15:06.166Z,6032
2018-07-21T10:16:16.233Z,6048
2018-07-21T10:17:26.300Z,6056
2018-07-21T10:18:36.358Z,6064
2018-07-21T10:19:46.484Z,6080
2018-07-21T10:20:56.559Z,6100
2018-07-21T10:22:06.645Z,6124
2018-07-21T10:23:16.542Z,6148
2018-07-21T10:24:26.721Z,6168
2018-07-21T10:25:36.854Z,6188
2018-07-21T10:26:46.407Z,6200
2018-07-21T10:27:55.960Z,6216
2018-07-21T10:29:04.957Z,6232
2018-07-21T10:30:14.938Z,6248
2018-07-21T10:31:24.789Z,6272
2018-07-21T10:32:34.889Z,6288
2018-07-21T10:33:45.141Z,6304
2018-07-21T10:34:54.966Z,6328
2018-07-21T10:36:05.434Z,6356
2018-07-21T10:37:15.658Z,6376
2018-07-21T10:38:25.455Z,6400
2018-07-21T10:39:35.511Z,6416
2018-07-21T10:40:45.047Z,6432
2018-07-21T10:41:55.122Z,6452
2018-07-21T10:43:04.973Z,6476
2018-07-21T10:44:14.255Z,6504
2018-07-21T10:45:24.350Z,6528
2018-07-21T10:46:34.158Z,6552
2018-07-21T10:47:43.698Z,6572
2018-07-21T10:48:53.564Z,6608
2018-07-21T10:50:03.630Z,6628
2018-07-21T10:51:13.435Z,6648
2018-07-21T10:52:23.493Z,6672
2018-07-21T10:53:33.303Z,6692
2018-07-21T10:54:43.159Z,6724
2018-07-21T10:55:52.692Z,6748
2018-07-21T10:57:02.226Z,6776
2018-07-21T10:58:12.289Z,6792
2018-07-21T10:59:22.377Z,6808
2018-07-21T11:00:32.524Z,6816
2018-07-21T11:01:42.654Z,6832
2018-07-21T11:02:52.448Z,6848
2018-07-21T11:04:01.463Z,6856
2018-07-21T11:05:11.003Z,6872
2018-07-21T11:06:21.123Z,6880
2018-07-21T11:07:30.937Z,6892
2018-07-21T11:08:40.472Z,6912
2018-07-21T11:09:50.278Z,6928
2018-07-21T11:11:00.075Z,6956
2018-07-21T11:12:09.374Z,6976
2018-07-21T11:13:19.199Z,6988
2018-07-21T11:14:29.003Z,7020
2018-07-21T11:15:39.123Z,7032
2018-07-21T11:16:48.950Z,7076
2018-07-21T11:17:58.817Z,7100
2018-07-21T11:19:08.356Z,7132
2018-07-21T11:20:18.440Z,7180
2018-07-21T11:21:28.536Z,7220
2018-07-21T11:22:38.607Z,7248
2018-07-21T11:23:48.469Z,7280
2018-07-21T11:24:58.538Z,7312
2018-07-21T11:26:08.357Z,7332
2018-07-21T11:27:18.158Z,7352
2018-07-21T11:28:28.227Z,7368
2018-07-21T11:29:38.072Z,7388
2018-07-21T11:30:48.150Z,7404
2018-07-21T11:31:58.243Z,7460
2018-07-21T11:33:08.313Z,7536
2018-07-21T11:34:18.389Z,7584
2018-07-21T11:35:29.067Z,7628
2018-07-21T11:36:38.909Z,7812
2018-07-21T11:37:49.023Z,8388
2018-07-21T11:38:58.805Z,9692
2018-07-21T11:40:08.604Z,30208
2018-07-21T11:41:18.746Z,76096
2018-07-21T11:42:28.817Z,84736
2018-07-21T11:43:38.891Z,90112
2018-07-21T11:44:48.413Z,90720
2018-07-21T11:45:58.508Z,94624
2018-07-21T11:47:08.361Z,92864
2018-07-21T11:48:18.444Z,86720
2018-07-21T11:49:28.265Z,85600
2018-07-21T11:50:38.090Z,88416
2018-07-21T11:51:47.885Z,90496
2018-07-21T11:52:58.033Z,92448
2018-07-21T11:54:07.837Z,90624
2018-07-21T11:55:17.893Z,86016
2018-07-21T11:56:27.720Z,82912
2018-07-21T11:57:37.786Z,81728
2018-07-21T11:58:47.927Z,71968
2018-07-21T11:59:58.019Z,71776
2018-07-21T12:01:07.290Z,65440
2018-07-21T12:02:17.086Z,71040
2018-07-21T12:03:27.163Z,79200
2018-07-21T12:04:36.767Z,79360
2018-07-21T12:05:47.262Z,80864
2018-07-21T12:06:56.875Z,85248
2018-07-21T12:08:06.693Z,84160
2018-07-21T12:09:16.527Z,77280
2018-07-21T12:10:26.679Z,73248
2018-07-21T12:11:35.958Z,80672
2018-07-21T12:12:45.519Z,85088
2018-07-21T12:13:55.080Z,82272
2018-07-21T12:15:04.919Z,86720
2018-07-21T12:16:14.529Z,84832
2018-07-21T12:17:24.606Z,75808
2018-07-21T12:18:34.708Z,76608
2018-07-21T12:19:44.527Z,80992
2018-07-21T12:20:54.609Z,74688
2018-07-21T12:22:04.752Z,72992
2018-07-21T12:23:14.575Z,77088
2018-07-21T12:24:24.675Z,80224
2018-07-21T12:25:34.757Z,74080
2018-07-21T12:26:44.856Z,70752
2018-07-21T12:27:54.740Z,72192
2018-07-21T12:29:04.293Z,63392
2018-07-21T12:30:13.844Z,55776
2018-07-21T12:31:23.931Z,62592
2018-07-21T12:32:33.752Z,71872
2018-07-21T12:33:44.035Z,84192
2018-07-21T12:34:54.259Z,85376
2018-07-21T12:36:04.361Z,81600
2018-07-21T12:37:14.453Z,77728
2018-07-21T12:38:24.270Z,82624
2018-07-21T12:39:34.423Z,86848
2018-07-21T12:40:44.515Z,84224
2018-07-21T12:41:54.324Z,82144
2018-07-21T12:43:03.876Z,81248
2018-07-21T12:44:13.420Z,81664
2018-07-21T12:45:23.564Z,79040
2018-07-21T12:46:33.657Z,79168
2018-07-21T12:47:43.210Z,80640
2018-07-21T12:48:53.028Z,80608
2018-07-21T12:50:03.118Z,84224
2018-07-21T12:51:13.231Z,82528
2018-07-21T12:52:23.322Z,80352
2018-07-21T12:53:33.426Z,80512
2018-07-21T12:54:43.528Z,82304
2018-07-21T12:55:52.808Z,82752
2018-07-21T12:57:02.966Z,84096
2018-07-21T12:58:13.073Z,83072
2018-07-21T12:59:22.641Z,79776
2018-07-21T13:00:32.769Z,77184
2018-07-21T13:01:42.344Z,74048
2018-07-21T13:02:52.470Z,73440
2018-07-21T13:04:02.292Z,76000
2018-07-21T13:05:11.859Z,77792
2018-07-21T13:06:21.686Z,80672
2018-07-21T13:07:31.509Z,84768
2018-07-21T13:08:41.646Z,83680
2018-07-21T13:09:52.131Z,83584
2018-07-21T13:11:02.278Z,83264
2018-07-21T13:12:12.100Z,68576
2018-07-21T13:13:22.195Z,65152
2018-07-21T13:14:32.356Z,82368
2018-07-21T13:15:42.185Z,85120
2018-07-21T13:16:51.733Z,87232
2018-07-21T13:18:01.810Z,90080
2018-07-21T13:19:11.617Z,90656
2018-07-21T13:20:21.739Z,91520
2018-07-21T13:21:31.844Z,90368
2018-07-21T13:22:41.923Z,90656
2018-07-21T13:23:52.015Z,86944
2018-07-21T13:25:01.833Z,80256
2018-07-21T13:26:15.386Z,84672
2018-07-21T13:27:25.191Z,91328
2018-07-21T13:28:35.291Z,90112
2018-07-21T13:29:45.375Z,89344
2018-07-21T13:30:55.198Z,88672
2018-07-21T13:32:04.804Z,87776
2018-07-21T13:33:14.195Z,88256
2018-07-21T13:34:24.088Z,88800
2018-07-21T13:35:33.919Z,88896
2018-07-21T13:36:44.029Z,85728
2018-07-21T13:37:54.185Z,87136
2018-07-21T13:39:04.006Z,89664
2018-07-21T13:40:13.824Z,86272
2018-07-21T13:41:23.660Z,90208
2018-07-21T13:42:33.494Z,92928
2018-07-21T13:43:43.361Z,91264
2018-07-21T13:44:52.919Z,94336
2018-07-21T13:46:03.018Z,98528
2018-07-21T13:47:12.839Z,99968
2018-07-21T13:48:22.404Z,97856
2018-07-21T13:49:32.302Z,89984
2018-07-21T13:50:42.112Z,91232
2018-07-21T13:51:52.179Z,90880
2018-07-21T13:53:01.993Z,86112
2018-07-21T13:54:11.819Z,83456
2018-07-21T13:55:21.970Z,78944
2018-07-21T13:56:32.060Z,80736
2018-07-21T13:57:42.207Z,82208
2018-07-21T13:58:52.302Z,82368
2018-07-21T14:00:02.104Z,76992
2018-07-21T14:01:11.682Z,78624
2018-07-21T14:02:22.197Z,81856
2018-07-21T14:03:32.322Z,81984
2018-07-21T14:04:42.151Z,82400
2018-07-21T14:05:51.981Z,80640
2018-07-21T14:07:01.590Z,80576
2018-07-21T14:08:11.680Z,75936
2018-07-21T14:09:21.219Z,75616
2018-07-21T14:10:31.039Z,81184
2018-07-21T14:11:41.141Z,80832
2018-07-21T14:12:51.298Z,82656
2018-07-21T14:14:01.384Z,80640
2018-07-21T14:15:11.486Z,77504
2018-07-21T14:16:21.598Z,74656
2018-07-21T14:17:31.683Z,75200
2018-07-21T14:18:41.540Z,76352
2018-07-21T14:19:51.641Z,76864
2018-07-21T14:21:01.721Z,75424
2018-07-21T14:22:11.543Z,78304
2018-07-21T14:23:21.644Z,80736
2018-07-21T14:24:31.511Z,76128
2018-07-21T14:25:41.613Z,77888
2018-07-21T14:26:51.717Z,77504
2018-07-21T14:28:01.814Z,76192
2018-07-21T14:29:11.366Z,74048
2018-07-21T14:30:21.513Z,77280
2018-07-21T14:31:31.619Z,76192
2018-07-21T14:32:41.710Z,68480
2018-07-21T14:33:51.533Z,67936
2018-07-21T14:35:01.630Z,71168
2018-07-21T14:36:12.796Z,74240
2018-07-21T14:37:23.267Z,76032
2018-07-21T14:38:33.083Z,71328
2018-07-21T14:39:42.888Z,70848
2018-07-21T14:40:52.990Z,72128
2018-07-21T14:42:02.610Z,66688
2018-07-21T14:43:11.904Z,67200
2018-07-21T14:44:21.452Z,67680
2018-07-21T14:45:31.543Z,65760
2018-07-21T14:46:41.636Z,66272
2018-07-21T14:47:51.236Z,67392
2018-07-21T14:49:01.072Z,72768
2018-07-21T14:50:11.161Z,71392
2018-07-21T14:51:20.964Z,61216
2018-07-21T14:52:30.794Z,54400
2018-07-21T14:53:40.930Z,51968
2018-07-21T14:54:51.513Z,51712
2018-07-21T14:56:01.829Z,51072
2018-07-21T14:57:10.822Z,49280
2018-07-21T14:58:20.376Z,48832
2018-07-21T14:59:30.529Z,51232
2018-07-21T15:00:39.805Z,52416
2018-07-21T15:01:50.028Z,55872
2018-07-21T15:03:00.117Z,58912
2018-07-21T15:04:09.933Z,64448
2018-07-21T15:05:20.070Z,68032
2018-07-21T15:06:29.894Z,67168
2018-07-21T15:07:39.709Z,68352
2018-07-21T15:08:49.802Z,72416
2018-07-21T15:09:59.635Z,73920
2018-07-21T15:11:09.504Z,75520
2018-07-21T15:12:19.549Z,79168
2018-07-21T15:13:29.375Z,75776
2018-07-21T15:14:39.473Z,76800
2018-07-21T15:15:49.563Z,78912
2018-07-21T15:16:59.713Z,77216
2018-07-21T15:18:09.529Z,78496
2018-07-21T15:19:19.635Z,81312
2018-07-21T15:20:29.738Z,81088
2018-07-21T15:21:39.844Z,81472
2018-07-21T15:22:49.717Z,85120
2018-07-21T15:23:59.924Z,84032
2018-07-21T15:25:09.766Z,79488
2018-07-21T15:26:19.855Z,79904
2018-07-21T15:27:29.418Z,83712
2018-07-21T15:28:39.035Z,81760
2018-07-21T15:29:48.854Z,83648
2018-07-21T15:30:58.937Z,84448
2018-07-21T15:32:08.748Z,85024
2018-07-21T15:33:18.585Z,81056
2018-07-21T15:34:28.464Z,78432
2018-07-21T15:35:38.294Z,77856
2018-07-21T15:36:48.390Z,77824
2018-07-21T15:37:58.208Z,78560
2018-07-21T15:39:08.340Z,79616